LPE0021 SKPE-SKRH
Flight info
| Callsign | LPE0021 |
|---|---|
| Flight time | 1h 27m |
| Altitude | 37000 |
| Route | NEBOV1A MATRO DCT VUP VUP1S |
| Aircraft | A320/M-SDE3FGHIRWY/LB1 |
Departure
| Time | 2026-04-22 04:11 |
|---|---|
| Airport | Matecaña International Airport (SKPE) |
Arrival
| Time | 2026-04-22 05:39 |
|---|---|
| Airport | Almirante Padilla Airport (SKRH) |
| Time | Latitude | Longitude | Altitude | Speed | Heading |
|---|---|---|---|---|---|
| 2026-04-22 03:40 | 4.81489 | -75.73791 | 4403 ft | 0 kts | 343° |
| 2026-04-22 04:02 | 4.81469 | -75.73785 | 4401 ft | 5 kts | 343° |
| 2026-04-22 04:03 | 4.81444 | -75.73765 | 4401 ft | 0 kts | 255° |
| 2026-04-22 04:05 | 4.81442 | -75.73772 | 4401 ft | 2 kts | 255° |
| 2026-04-22 04:06 | 4.81432 | -75.73795 | 4400 ft | 5 kts | 244° |
| 2026-04-22 04:06 | 4.81398 | -75.73838 | 4397 ft | 10 kts | 223° |
| 2026-04-22 04:06 | 4.81372 | -75.73862 | 4394 ft | 0 kts | 222° |
| 2026-04-22 04:07 | 4.81364 | -75.73869 | 4394 ft | 4 kts | 222° |
| 2026-04-22 04:07 | 4.81328 | -75.73901 | 4391 ft | 9 kts | 222° |
| 2026-04-22 04:07 | 4.81271 | -75.73960 | 4386 ft | 14 kts | 239° |
| 2026-04-22 04:08 | 4.81234 | -75.74070 | 4379 ft | 19 kts | 250° |
| 2026-04-22 04:08 | 4.81188 | -75.74210 | 4368 ft | 23 kts | 251° |
| 2026-04-22 04:08 | 4.81131 | -75.74381 | 4357 ft | 27 kts | 251° |
| 2026-04-22 04:08 | 4.81069 | -75.74574 | 4343 ft | 30 kts | 251° |
| 2026-04-22 04:09 | 4.81005 | -75.74774 | 4329 ft | 29 kts | 254° |
| 2026-04-22 04:09 | 4.80945 | -75.74883 | 4323 ft | 10 kts | 256° |
| 2026-04-22 04:09 | 4.80959 | -75.74900 | 4323 ft | 3 kts | 13° |
| 2026-04-22 04:09 | 4.80972 | -75.74879 | 4323 ft | 3 kts | 75° |
| 2026-04-22 04:10 | 4.80973 | -75.74876 | 4323 ft | 0 kts | 75° |
| 2026-04-22 04:10 | 4.80978 | -75.74858 | 4324 ft | 23 kts | 74° |
| 2026-04-22 04:11 | 4.81123 | -75.74412 | 4355 ft | 106 kts | 72° |
| 2026-04-22 04:11 | 4.81424 | -75.73495 | 4503 ft | 161 kts | 72° |
| 2026-04-22 04:11 | 4.81737 | -75.72439 | 5225 ft | 158 kts | 83° |
| 2026-04-22 04:11 | 4.81756 | -75.71398 | 5931 ft | 146 kts | 103° |
| 2026-04-22 04:12 | 4.81224 | -75.70531 | 6374 ft | 153 kts | 146° |
| 2026-04-22 04:12 | 4.80201 | -75.70216 | 6724 ft | 168 kts | 188° |
| 2026-04-22 04:12 | 4.79074 | -75.70694 | 7090 ft | 183 kts | 213° |
| 2026-04-22 04:12 | 4.77969 | -75.71426 | 7501 ft | 199 kts | 212° |
| 2026-04-22 04:13 | 4.76750 | -75.72190 | 7943 ft | 215 kts | 211° |
| 2026-04-22 04:13 | 4.75427 | -75.72993 | 8472 ft | 228 kts | 211° |
| 2026-04-22 04:13 | 4.74050 | -75.73818 | 9194 ft | 231 kts | 211° |
| 2026-04-22 04:13 | 4.72675 | -75.74639 | 9918 ft | 233 kts | 212° |
| 2026-04-22 04:14 | 4.71458 | -75.75692 | 10627 ft | 234 kts | 238° |
| 2026-04-22 04:14 | 4.70840 | -75.77163 | 11321 ft | 233 kts | 264° |
| 2026-04-22 04:14 | 4.71002 | -75.78760 | 11988 ft | 234 kts | 290° |
| 2026-04-22 04:14 | 4.71802 | -75.80165 | 12625 ft | 236 kts | 311° |
| 2026-04-22 04:15 | 4.73081 | -75.81194 | 13247 ft | 239 kts | 332° |
| 2026-04-22 04:15 | 4.74637 | -75.81771 | 13864 ft | 241 kts | 342° |
| 2026-04-22 04:15 | 4.76265 | -75.82256 | 14429 ft | 245 kts | 342° |
| 2026-04-22 04:15 | 4.77895 | -75.82747 | 14975 ft | 248 kts | 342° |
| 2026-04-22 04:16 | 4.79549 | -75.83262 | 15510 ft | 252 kts | 342° |
| 2026-04-22 04:16 | 4.82957 | -75.84346 | 16570 ft | 259 kts | 342° |
| 2026-04-22 04:16 | 4.84685 | -75.84901 | 17082 ft | 262 kts | 342° |
| 2026-04-22 04:17 | 4.86469 | -75.85408 | 17596 ft | 265 kts | 346° |
| 2026-04-22 04:17 | 4.88270 | -75.85771 | 18098 ft | 268 kts | 349° |
| 2026-04-22 04:17 | 4.90123 | -75.86079 | 18605 ft | 270 kts | 350° |
| 2026-04-22 04:17 | 4.91988 | -75.86382 | 19096 ft | 271 kts | 349° |
| 2026-04-22 04:18 | 4.93867 | -75.86687 | 19583 ft | 274 kts | 349° |
| 2026-04-22 04:18 | 4.95759 | -75.86996 | 20052 ft | 276 kts | 349° |
| 2026-04-22 04:18 | 4.97693 | -75.87083 | 20484 ft | 281 kts | 10° |
| 2026-04-22 04:18 | 4.99524 | -75.86389 | 20901 ft | 286 kts | 34° |
| 2026-04-22 04:19 | 5.01033 | -75.85041 | 21219 ft | 295 kts | 46° |
| 2026-04-22 04:19 | 5.02457 | -75.83499 | 21434 ft | 307 kts | 47° |
| 2026-04-22 04:19 | 5.03926 | -75.81896 | 21646 ft | 320 kts | 46° |
| 2026-04-22 04:19 | 5.05470 | -75.80233 | 21855 ft | 332 kts | 46° |
| 2026-04-22 04:20 | 5.07098 | -75.78502 | 22056 ft | 344 kts | 46° |
| 2026-04-22 04:20 | 5.08768 | -75.76739 | 22254 ft | 356 kts | 46° |
| 2026-04-22 04:20 | 5.10503 | -75.74914 | 22456 ft | 367 kts | 46° |
| 2026-04-22 04:20 | 5.12312 | -75.73028 | 22675 ft | 377 kts | 44° |
| 2026-04-22 04:21 | 5.14321 | -75.71336 | 23031 ft | 382 kts | 35° |
| 2026-04-22 04:21 | 5.16602 | -75.69952 | 23464 ft | 384 kts | 26° |
| 2026-04-22 04:21 | 5.19042 | -75.68794 | 23926 ft | 386 kts | 24° |
| 2026-04-22 04:21 | 5.21498 | -75.67684 | 24359 ft | 388 kts | 24° |
| 2026-04-22 04:22 | 5.23982 | -75.66566 | 24791 ft | 391 kts | 24° |
| 2026-04-22 04:22 | 5.26482 | -75.65436 | 25246 ft | 392 kts | 25° |
| 2026-04-22 04:22 | 5.28969 | -75.64305 | 25689 ft | 394 kts | 25° |
| 2026-04-22 04:22 | 5.31480 | -75.63159 | 26147 ft | 396 kts | 25° |
| 2026-04-22 04:23 | 5.33996 | -75.62009 | 26590 ft | 397 kts | 25° |
| 2026-04-22 04:23 | 5.36511 | -75.60856 | 27011 ft | 399 kts | 25° |
| 2026-04-22 04:23 | 5.39072 | -75.59682 | 27424 ft | 401 kts | 25° |
| 2026-04-22 04:23 | 5.41619 | -75.58514 | 27819 ft | 404 kts | 25° |
| 2026-04-22 04:24 | 5.44182 | -75.57337 | 28223 ft | 406 kts | 25° |
| 2026-04-22 04:24 | 5.46792 | -75.56139 | 28635 ft | 408 kts | 25° |
| 2026-04-22 04:24 | 5.49377 | -75.54954 | 29031 ft | 410 kts | 25° |
| 2026-04-22 04:24 | 5.51992 | -75.53757 | 29412 ft | 412 kts | 25° |
| 2026-04-22 04:25 | 5.54608 | -75.52557 | 29780 ft | 414 kts | 25° |
| 2026-04-22 04:25 | 5.57236 | -75.51349 | 30140 ft | 416 kts | 25° |
| 2026-04-22 04:25 | 5.59863 | -75.50144 | 30480 ft | 419 kts | 26° |
| 2026-04-22 04:25 | 5.62527 | -75.48922 | 30812 ft | 421 kts | 26° |
| 2026-04-22 04:26 | 5.65208 | -75.47690 | 31144 ft | 423 kts | 26° |
| 2026-04-22 04:26 | 5.67909 | -75.46448 | 31471 ft | 426 kts | 26° |
| 2026-04-22 04:26 | 5.70612 | -75.45207 | 31780 ft | 428 kts | 26° |
| 2026-04-22 04:26 | 5.73323 | -75.43962 | 32081 ft | 430 kts | 26° |
| 2026-04-22 04:27 | 5.76090 | -75.42693 | 32388 ft | 432 kts | 26° |
| 2026-04-22 04:27 | 5.78837 | -75.41431 | 32681 ft | 434 kts | 26° |
| 2026-04-22 04:27 | 5.81576 | -75.40173 | 32988 ft | 436 kts | 26° |
| 2026-04-22 04:27 | 5.84350 | -75.38898 | 33304 ft | 438 kts | 26° |
| 2026-04-22 04:28 | 5.87140 | -75.37618 | 33613 ft | 439 kts | 26° |
| 2026-04-22 04:28 | 5.89932 | -75.36334 | 33915 ft | 441 kts | 26° |
| 2026-04-22 04:28 | 5.92708 | -75.35058 | 34319 ft | 440 kts | 26° |
| 2026-04-22 04:28 | 5.95518 | -75.33766 | 34762 ft | 438 kts | 27° |
| 2026-04-22 04:29 | 5.98284 | -75.32494 | 35169 ft | 436 kts | 27° |
| 2026-04-22 04:29 | 6.01039 | -75.31226 | 35554 ft | 435 kts | 27° |
| 2026-04-22 04:29 | 6.03821 | -75.29945 | 35900 ft | 435 kts | 27° |
| 2026-04-22 04:29 | 6.06581 | -75.28675 | 36214 ft | 435 kts | 27° |
| 2026-04-22 04:30 | 6.09316 | -75.27415 | 36509 ft | 435 kts | 27° |
| 2026-04-22 04:30 | 6.12096 | -75.26136 | 36749 ft | 436 kts | 27° |
| 2026-04-22 04:30 | 6.14874 | -75.24858 | 36908 ft | 439 kts | 27° |
| 2026-04-22 04:30 | 6.17667 | -75.23572 | 37058 ft | 441 kts | 27° |
| 2026-04-22 04:31 | 6.20486 | -75.22275 | 37213 ft | 443 kts | 27° |
| 2026-04-22 04:31 | 6.23291 | -75.20982 | 37315 ft | 445 kts | 27° |
| 2026-04-22 04:31 | 6.26144 | -75.19670 | 37306 ft | 446 kts | 27° |
| 2026-04-22 04:32 | 6.31777 | -75.17077 | 37286 ft | 446 kts | 27° |
| 2026-04-22 04:32 | 6.37472 | -75.14454 | 37254 ft | 447 kts | 27° |
| 2026-04-22 04:33 | 6.43128 | -75.11848 | 37234 ft | 447 kts | 27° |
| 2026-04-22 04:33 | 6.48821 | -75.09226 | 37221 ft | 447 kts | 27° |
| 2026-04-22 04:34 | 6.54482 | -75.06615 | 37218 ft | 447 kts | 27° |
| 2026-04-22 04:34 | 6.60166 | -75.03994 | 37226 ft | 447 kts | 27° |
| 2026-04-22 04:35 | 6.65855 | -75.01372 | 37237 ft | 447 kts | 27° |
| 2026-04-22 04:35 | 6.71520 | -74.98758 | 37242 ft | 447 kts | 27° |
| 2026-04-22 04:36 | 6.77179 | -74.96148 | 37236 ft | 447 kts | 27° |
| 2026-04-22 04:36 | 6.82855 | -74.93528 | 37221 ft | 448 kts | 27° |
| 2026-04-22 04:37 | 6.88537 | -74.90906 | 37195 ft | 448 kts | 27° |
| 2026-04-22 04:37 | 6.94210 | -74.88288 | 37169 ft | 448 kts | 27° |
| 2026-04-22 04:38 | 6.99898 | -74.85660 | 37144 ft | 447 kts | 26° |
| 2026-04-22 04:38 | 7.05577 | -74.83037 | 37136 ft | 448 kts | 27° |
| 2026-04-22 04:39 | 7.11273 | -74.80406 | 37122 ft | 448 kts | 27° |
| 2026-04-22 04:39 | 7.16991 | -74.77761 | 37095 ft | 448 kts | 26° |
| 2026-04-22 04:40 | 7.22650 | -74.75146 | 37076 ft | 448 kts | 27° |
| 2026-04-22 04:40 | 7.28351 | -74.72510 | 36973 ft | 449 kts | 26° |
| 2026-04-22 04:40 | 7.31181 | -74.71201 | 36683 ft | 448 kts | 26° |
| 2026-04-22 04:41 | 7.34027 | -74.69883 | 36391 ft | 445 kts | 26° |
| 2026-04-22 04:41 | 7.36861 | -74.68572 | 36098 ft | 442 kts | 26° |
| 2026-04-22 04:41 | 7.39648 | -74.67282 | 35811 ft | 440 kts | 26° |
| 2026-04-22 04:41 | 7.42424 | -74.65997 | 35524 ft | 439 kts | 26° |
| 2026-04-22 04:42 | 7.45241 | -74.64692 | 35232 ft | 439 kts | 26° |
| 2026-04-22 04:42 | 7.48029 | -74.63403 | 34944 ft | 440 kts | 26° |
| 2026-04-22 04:42 | 7.50807 | -74.62116 | 34658 ft | 441 kts | 26° |
| 2026-04-22 04:42 | 7.53628 | -74.60810 | 34369 ft | 442 kts | 26° |
| 2026-04-22 04:43 | 7.56422 | -74.59516 | 34083 ft | 443 kts | 26° |
| 2026-04-22 04:43 | 7.59231 | -74.58215 | 33798 ft | 443 kts | 26° |
| 2026-04-22 04:43 | 7.62061 | -74.56904 | 33511 ft | 444 kts | 26° |
| 2026-04-22 04:43 | 7.63488 | -74.56242 | 33366 ft | 445 kts | 26° |
| 2026-04-22 04:44 | 7.65568 | -74.55279 | 33156 ft | 444 kts | 26° |
| 2026-04-22 04:44 | 7.68384 | -74.53976 | 32872 ft | 442 kts | 26° |
| 2026-04-22 04:44 | 7.71177 | -74.52683 | 32606 ft | 440 kts | 26° |
| 2026-04-22 04:44 | 7.73977 | -74.51385 | 32343 ft | 438 kts | 26° |
| 2026-04-22 04:45 | 7.76752 | -74.50097 | 32082 ft | 436 kts | 26° |
| 2026-04-22 04:45 | 7.79507 | -74.48819 | 31820 ft | 434 kts | 25° |
| 2026-04-22 04:45 | 7.82238 | -74.47553 | 31560 ft | 432 kts | 26° |
| 2026-04-22 04:45 | 7.84997 | -74.46272 | 31297 ft | 430 kts | 25° |
| 2026-04-22 04:46 | 7.87710 | -74.45014 | 31038 ft | 429 kts | 25° |
| 2026-04-22 04:46 | 7.90415 | -74.43759 | 30779 ft | 426 kts | 25° |
| 2026-04-22 04:46 | 7.93130 | -74.42500 | 30517 ft | 425 kts | 25° |
| 2026-04-22 04:46 | 7.95789 | -74.41266 | 30260 ft | 423 kts | 25° |
| 2026-04-22 04:47 | 7.98458 | -74.40028 | 30002 ft | 421 kts | 25° |
| 2026-04-22 04:47 | 8.01145 | -74.38782 | 29741 ft | 418 kts | 25° |
| 2026-04-22 04:47 | 8.03789 | -74.37554 | 29483 ft | 416 kts | 25° |
| 2026-04-22 04:47 | 8.06430 | -74.36328 | 29224 ft | 415 kts | 25° |
| 2026-04-22 04:48 | 8.09046 | -74.35112 | 28967 ft | 413 kts | 25° |
| 2026-04-22 04:48 | 8.11656 | -74.33900 | 28710 ft | 411 kts | 25° |
| 2026-04-22 04:48 | 8.14270 | -74.32687 | 28461 ft | 409 kts | 25° |
| 2026-04-22 04:48 | 8.16866 | -74.31480 | 28214 ft | 408 kts | 25° |
| 2026-04-22 04:49 | 8.19459 | -74.30276 | 27967 ft | 406 kts | 25° |
| 2026-04-22 04:49 | 8.22027 | -74.29082 | 27721 ft | 405 kts | 25° |
| 2026-04-22 04:49 | 8.24610 | -74.27882 | 27473 ft | 403 kts | 25° |
| 2026-04-22 04:49 | 8.27150 | -74.26701 | 27228 ft | 402 kts | 25° |
| 2026-04-22 04:50 | 8.29702 | -74.25513 | 26982 ft | 400 kts | 25° |
| 2026-04-22 04:50 | 8.32219 | -74.24344 | 26737 ft | 398 kts | 25° |
| 2026-04-22 04:50 | 8.34759 | -74.23164 | 26488 ft | 396 kts | 25° |
| 2026-04-22 04:50 | 8.37268 | -74.21997 | 26242 ft | 393 kts | 25° |
| 2026-04-22 04:51 | 8.39745 | -74.20844 | 25997 ft | 391 kts | 25° |
| 2026-04-22 04:51 | 8.42229 | -74.19688 | 25749 ft | 389 kts | 25° |
| 2026-04-22 04:51 | 8.44686 | -74.18543 | 25504 ft | 387 kts | 25° |
| 2026-04-22 04:51 | 8.47123 | -74.17409 | 25261 ft | 386 kts | 25° |
| 2026-04-22 04:52 | 8.49587 | -74.16264 | 25014 ft | 384 kts | 25° |
| 2026-04-22 04:52 | 8.52012 | -74.15135 | 24768 ft | 381 kts | 25° |
| 2026-04-22 04:52 | 8.54427 | -74.14011 | 24522 ft | 380 kts | 25° |
| 2026-04-22 04:52 | 8.56823 | -74.12895 | 24277 ft | 378 kts | 25° |
| 2026-04-22 04:53 | 8.59203 | -74.11787 | 24034 ft | 377 kts | 25° |
| 2026-04-22 04:53 | 8.61587 | -74.10677 | 23789 ft | 374 kts | 25° |
| 2026-04-22 04:53 | 8.63983 | -74.09561 | 23544 ft | 373 kts | 25° |
| 2026-04-22 04:53 | 8.66336 | -74.08466 | 23304 ft | 372 kts | 25° |
| 2026-04-22 04:54 | 8.68671 | -74.07377 | 23068 ft | 371 kts | 25° |
| 2026-04-22 04:54 | 8.71022 | -74.06280 | 22828 ft | 369 kts | 25° |
| 2026-04-22 04:54 | 8.73353 | -74.05193 | 22589 ft | 368 kts | 26° |
| 2026-04-22 04:54 | 8.75695 | -74.04102 | 22352 ft | 367 kts | 26° |
| 2026-04-22 04:55 | 8.78012 | -74.03023 | 22121 ft | 366 kts | 26° |
| 2026-04-22 04:55 | 8.80316 | -74.01949 | 21894 ft | 364 kts | 26° |
| 2026-04-22 04:55 | 8.82632 | -74.00869 | 21660 ft | 363 kts | 26° |
| 2026-04-22 04:55 | 8.84913 | -73.99805 | 21432 ft | 361 kts | 26° |
| 2026-04-22 04:56 | 8.87192 | -73.98743 | 21201 ft | 360 kts | 26° |
| 2026-04-22 04:56 | 8.89468 | -73.97682 | 20972 ft | 359 kts | 26° |
| 2026-04-22 04:56 | 8.91737 | -73.96622 | 20746 ft | 357 kts | 26° |
| 2026-04-22 04:56 | 8.94016 | -73.95559 | 20515 ft | 356 kts | 26° |
| 2026-04-22 04:57 | 8.96253 | -73.94514 | 20292 ft | 355 kts | 26° |
| 2026-04-22 04:57 | 8.98496 | -73.93468 | 20056 ft | 354 kts | 26° |
| 2026-04-22 04:57 | 9.00744 | -73.92417 | 19824 ft | 353 kts | 26° |
| 2026-04-22 04:57 | 9.02977 | -73.91373 | 19595 ft | 352 kts | 25° |
| 2026-04-22 04:58 | 9.05196 | -73.90337 | 19363 ft | 351 kts | 25° |
| 2026-04-22 04:58 | 9.07414 | -73.89303 | 19130 ft | 349 kts | 25° |
| 2026-04-22 04:58 | 9.09611 | -73.88275 | 18898 ft | 347 kts | 25° |
| 2026-04-22 04:58 | 9.11822 | -73.87242 | 18667 ft | 346 kts | 25° |
| 2026-04-22 04:59 | 9.14021 | -73.86214 | 18432 ft | 345 kts | 25° |
| 2026-04-22 04:59 | 9.16238 | -73.85178 | 18192 ft | 344 kts | 25° |
| 2026-04-22 04:59 | 9.18411 | -73.84161 | 17958 ft | 343 kts | 25° |
| 2026-04-22 04:59 | 9.20578 | -73.83149 | 17721 ft | 341 kts | 25° |
| 2026-04-22 05:00 | 9.22719 | -73.82148 | 17489 ft | 340 kts | 25° |
| 2026-04-22 05:00 | 9.24869 | -73.81142 | 17244 ft | 339 kts | 25° |
| 2026-04-22 05:00 | 9.27028 | -73.80132 | 17008 ft | 337 kts | 25° |
| 2026-04-22 05:00 | 9.29177 | -73.79128 | 16775 ft | 335 kts | 25° |
| 2026-04-22 05:01 | 9.31281 | -73.78144 | 16547 ft | 334 kts | 25° |
| 2026-04-22 05:01 | 9.33423 | -73.77142 | 16308 ft | 333 kts | 25° |
| 2026-04-22 05:01 | 9.35521 | -73.76160 | 16076 ft | 332 kts | 25° |
| 2026-04-22 05:01 | 9.37637 | -73.75169 | 15847 ft | 331 kts | 25° |
| 2026-04-22 05:02 | 9.39724 | -73.74192 | 15608 ft | 330 kts | 25° |
| 2026-04-22 05:02 | 9.41809 | -73.73216 | 15362 ft | 328 kts | 25° |
| 2026-04-22 05:02 | 9.43870 | -73.72251 | 15118 ft | 327 kts | 25° |
| 2026-04-22 05:02 | 9.45952 | -73.71276 | 14877 ft | 327 kts | 25° |
| 2026-04-22 05:03 | 9.48032 | -73.70301 | 14659 ft | 325 kts | 25° |
| 2026-04-22 05:03 | 9.50075 | -73.69344 | 14447 ft | 324 kts | 25° |
| 2026-04-22 05:03 | 9.52120 | -73.68385 | 14176 ft | 323 kts | 25° |
| 2026-04-22 05:03 | 9.54165 | -73.67425 | 13936 ft | 322 kts | 25° |
| 2026-04-22 05:04 | 9.56218 | -73.66461 | 13659 ft | 320 kts | 25° |
| 2026-04-22 05:04 | 9.58240 | -73.65513 | 13408 ft | 319 kts | 24° |
| 2026-04-22 05:04 | 9.60263 | -73.64563 | 13213 ft | 317 kts | 24° |
| 2026-04-22 05:04 | 9.62254 | -73.63630 | 12993 ft | 316 kts | 24° |
| 2026-04-22 05:05 | 9.64265 | -73.62687 | 12725 ft | 315 kts | 24° |
| 2026-04-22 05:05 | 9.66267 | -73.61749 | 12462 ft | 313 kts | 24° |
| 2026-04-22 05:05 | 9.68243 | -73.60823 | 12236 ft | 313 kts | 25° |
| 2026-04-22 05:05 | 9.70240 | -73.59886 | 11996 ft | 313 kts | 25° |
| 2026-04-22 05:06 | 9.72202 | -73.58966 | 11745 ft | 312 kts | 25° |
| 2026-04-22 05:06 | 9.74190 | -73.58033 | 11501 ft | 310 kts | 25° |
| 2026-04-22 05:06 | 9.76125 | -73.57124 | 11280 ft | 309 kts | 25° |
| 2026-04-22 05:06 | 9.78095 | -73.56199 | 11034 ft | 307 kts | 25° |
| 2026-04-22 05:07 | 9.80024 | -73.55293 | 10792 ft | 306 kts | 25° |
| 2026-04-22 05:07 | 9.81958 | -73.54385 | 10529 ft | 299 kts | 24° |
| 2026-04-22 05:07 | 9.83826 | -73.53507 | 10259 ft | 293 kts | 24° |
| 2026-04-22 05:07 | 9.85690 | -73.52630 | 10056 ft | 292 kts | 24° |
| 2026-04-22 05:08 | 9.87536 | -73.51762 | 10026 ft | 293 kts | 24° |
| 2026-04-22 05:08 | 9.89390 | -73.50892 | 10029 ft | 294 kts | 24° |
| 2026-04-22 05:08 | 9.91256 | -73.50017 | 10014 ft | 293 kts | 24° |
| 2026-04-22 05:08 | 9.93127 | -73.49139 | 10006 ft | 293 kts | 24° |
| 2026-04-22 05:09 | 9.94974 | -73.48273 | 10011 ft | 292 kts | 25° |
| 2026-04-22 05:09 | 9.96843 | -73.47394 | 10021 ft | 292 kts | 25° |
| 2026-04-22 05:09 | 9.98682 | -73.46529 | 10032 ft | 292 kts | 25° |
| 2026-04-22 05:09 | 10.00544 | -73.45653 | 10020 ft | 292 kts | 25° |
| 2026-04-22 05:10 | 10.02395 | -73.44782 | 10034 ft | 292 kts | 25° |
| 2026-04-22 05:10 | 10.04231 | -73.43916 | 10043 ft | 291 kts | 25° |
| 2026-04-22 05:10 | 10.06102 | -73.43034 | 10043 ft | 292 kts | 25° |
| 2026-04-22 05:10 | 10.07947 | -73.42165 | 10035 ft | 292 kts | 24° |
| 2026-04-22 05:11 | 10.09784 | -73.41299 | 10037 ft | 292 kts | 24° |
| 2026-04-22 05:11 | 10.11653 | -73.40421 | 10036 ft | 292 kts | 25° |
| 2026-04-22 05:11 | 10.13491 | -73.39557 | 10041 ft | 292 kts | 25° |
| 2026-04-22 05:11 | 10.15345 | -73.38685 | 10050 ft | 291 kts | 25° |
| 2026-04-22 05:12 | 10.17201 | -73.37811 | 10044 ft | 291 kts | 25° |
| 2026-04-22 05:12 | 10.19051 | -73.36939 | 10034 ft | 291 kts | 25° |
| 2026-04-22 05:12 | 10.20890 | -73.36071 | 10056 ft | 291 kts | 25° |
| 2026-04-22 05:12 | 10.22741 | -73.35197 | 10044 ft | 291 kts | 25° |
| 2026-04-22 05:13 | 10.24589 | -73.34325 | 10053 ft | 292 kts | 25° |
| 2026-04-22 05:13 | 10.26435 | -73.33456 | 10049 ft | 291 kts | 25° |
| 2026-04-22 05:13 | 10.28282 | -73.32584 | 10070 ft | 291 kts | 25° |
| 2026-04-22 05:13 | 10.30124 | -73.31716 | 10086 ft | 291 kts | 25° |
| 2026-04-22 05:14 | 10.31954 | -73.30853 | 10085 ft | 291 kts | 25° |
| 2026-04-22 05:14 | 10.33818 | -73.29975 | 10085 ft | 291 kts | 25° |
| 2026-04-22 05:14 | 10.35646 | -73.29114 | 10074 ft | 291 kts | 25° |
| 2026-04-22 05:14 | 10.37504 | -73.28238 | 10078 ft | 292 kts | 25° |
| 2026-04-22 05:15 | 10.39340 | -73.27372 | 10067 ft | 291 kts | 25° |
| 2026-04-22 05:15 | 10.41186 | -73.26500 | 10072 ft | 291 kts | 25° |
| 2026-04-22 05:15 | 10.43024 | -73.25641 | 10053 ft | 291 kts | 24° |
| 2026-04-22 05:15 | 10.44913 | -73.24856 | 10044 ft | 291 kts | 20° |
| 2026-04-22 05:16 | 10.46842 | -73.24174 | 10051 ft | 291 kts | 18° |
| 2026-04-22 05:16 | 10.48772 | -73.23541 | 10046 ft | 290 kts | 18° |
| 2026-04-22 05:16 | 10.50717 | -73.22907 | 10019 ft | 290 kts | 18° |
| 2026-04-22 05:16 | 10.52660 | -73.22274 | 10042 ft | 291 kts | 18° |
| 2026-04-22 05:17 | 10.54581 | -73.21647 | 10060 ft | 291 kts | 18° |
| 2026-04-22 05:17 | 10.56521 | -73.21013 | 10059 ft | 291 kts | 18° |
| 2026-04-22 05:17 | 10.58467 | -73.20376 | 10066 ft | 291 kts | 18° |
| 2026-04-22 05:17 | 10.60411 | -73.19740 | 10085 ft | 291 kts | 18° |
| 2026-04-22 05:18 | 10.64265 | -73.18478 | 10087 ft | 289 kts | 18° |
| 2026-04-22 05:18 | 10.66195 | -73.17847 | 10103 ft | 290 kts | 18° |
| 2026-04-22 05:18 | 10.68121 | -73.17217 | 10107 ft | 289 kts | 18° |
| 2026-04-22 05:19 | 10.70048 | -73.16586 | 10103 ft | 289 kts | 18° |
| 2026-04-22 05:19 | 10.71970 | -73.15955 | 10092 ft | 290 kts | 18° |
| 2026-04-22 05:19 | 10.73886 | -73.15327 | 10102 ft | 289 kts | 18° |
| 2026-04-22 05:19 | 10.75815 | -73.14694 | 10099 ft | 289 kts | 18° |
| 2026-04-22 05:20 | 10.77726 | -73.14068 | 10091 ft | 289 kts | 18° |
| 2026-04-22 05:20 | 10.79666 | -73.13432 | 10092 ft | 290 kts | 18° |
| 2026-04-22 05:20 | 10.81589 | -73.12801 | 10106 ft | 289 kts | 18° |
| 2026-04-22 05:20 | 10.83519 | -73.12167 | 10097 ft | 290 kts | 18° |
| 2026-04-22 05:21 | 10.85449 | -73.11534 | 10085 ft | 290 kts | 18° |
| 2026-04-22 05:21 | 10.87372 | -73.10903 | 10097 ft | 290 kts | 18° |
| 2026-04-22 05:21 | 10.89303 | -73.10269 | 10112 ft | 290 kts | 18° |
| 2026-04-22 05:21 | 10.91220 | -73.09641 | 10117 ft | 290 kts | 17° |
| 2026-04-22 05:22 | 10.93155 | -73.09055 | 10021 ft | 288 kts | 16° |
| 2026-04-22 05:22 | 10.95095 | -73.08501 | 9907 ft | 287 kts | 15° |
| 2026-04-22 05:22 | 10.97044 | -73.07945 | 9800 ft | 287 kts | 15° |
| 2026-04-22 05:22 | 10.98946 | -73.07398 | 9681 ft | 287 kts | 16° |
| 2026-04-22 05:23 | 11.00888 | -73.06838 | 9564 ft | 286 kts | 16° |
| 2026-04-22 05:23 | 11.02803 | -73.06329 | 9443 ft | 286 kts | 8° |
| 2026-04-22 05:23 | 11.04793 | -73.06355 | 9319 ft | 286 kts | 349° |
| 2026-04-22 05:23 | 11.06692 | -73.07033 | 9204 ft | 288 kts | 335° |
| 2026-04-22 05:24 | 11.08488 | -73.07940 | 9083 ft | 288 kts | 334° |
| 2026-04-22 05:24 | 11.10265 | -73.08862 | 8959 ft | 288 kts | 334° |
| 2026-04-22 05:24 | 11.12070 | -73.09795 | 8840 ft | 287 kts | 334° |
| 2026-04-22 05:24 | 11.13846 | -73.10709 | 8703 ft | 286 kts | 334° |
| 2026-04-22 05:25 | 11.15619 | -73.11616 | 8552 ft | 285 kts | 334° |
| 2026-04-22 05:25 | 11.17415 | -73.12530 | 8440 ft | 285 kts | 334° |
| 2026-04-22 05:25 | 11.19187 | -73.13430 | 8321 ft | 284 kts | 334° |
| 2026-04-22 05:25 | 11.20969 | -73.14336 | 8168 ft | 284 kts | 334° |
| 2026-04-22 05:26 | 11.22748 | -73.15241 | 7993 ft | 283 kts | 335° |
| 2026-04-22 05:26 | 11.24513 | -73.16137 | 7778 ft | 283 kts | 334° |
| 2026-04-22 05:26 | 11.26271 | -73.17031 | 7525 ft | 283 kts | 335° |
| 2026-04-22 05:26 | 11.28037 | -73.17929 | 7226 ft | 281 kts | 334° |
| 2026-04-22 05:27 | 11.29797 | -73.18825 | 6887 ft | 280 kts | 335° |
| 2026-04-22 05:27 | 11.31538 | -73.19710 | 6533 ft | 278 kts | 335° |
| 2026-04-22 05:27 | 11.33251 | -73.20581 | 6188 ft | 276 kts | 335° |
| 2026-04-22 05:27 | 11.34973 | -73.21457 | 5851 ft | 274 kts | 335° |
| 2026-04-22 05:28 | 11.36705 | -73.22338 | 5509 ft | 273 kts | 335° |
| 2026-04-22 05:28 | 11.38472 | -73.22999 | 5142 ft | 269 kts | 355° |
| 2026-04-22 05:28 | 11.40302 | -73.22751 | 4797 ft | 263 kts | 24° |
| 2026-04-22 05:28 | 11.41810 | -73.21725 | 4467 ft | 260 kts | 41° |
| 2026-04-22 05:29 | 11.43169 | -73.20517 | 4255 ft | 253 kts | 42° |
| 2026-04-22 05:29 | 11.44451 | -73.19347 | 4168 ft | 241 kts | 45° |
| 2026-04-22 05:29 | 11.45593 | -73.18120 | 3959 ft | 236 kts | 50° |
| 2026-04-22 05:29 | 11.46653 | -73.16846 | 3655 ft | 235 kts | 51° |
| 2026-04-22 05:30 | 11.47710 | -73.15560 | 3364 ft | 234 kts | 51° |
| 2026-04-22 05:30 | 11.48759 | -73.14288 | 3180 ft | 228 kts | 50° |
| 2026-04-22 05:30 | 11.49758 | -73.13079 | 3163 ft | 214 kts | 50° |
| 2026-04-22 05:30 | 11.50705 | -73.11934 | 3136 ft | 206 kts | 50° |
| 2026-04-22 05:31 | 11.51625 | -73.10825 | 3056 ft | 206 kts | 50° |
| 2026-04-22 05:31 | 11.52582 | -73.09729 | 2978 ft | 204 kts | 41° |
| 2026-04-22 05:31 | 11.53891 | -73.09204 | 2966 ft | 209 kts | 1° |
| 2026-04-22 05:31 | 11.55296 | -73.09613 | 2974 ft | 216 kts | 328° |
| 2026-04-22 05:32 | 11.56385 | -73.10706 | 2978 ft | 221 kts | 310° |
| 2026-04-22 05:32 | 11.56997 | -73.12139 | 2956 ft | 226 kts | 275° |
| 2026-04-22 05:32 | 11.56936 | -73.13741 | 2963 ft | 226 kts | 266° |
| 2026-04-22 05:32 | 11.56808 | -73.15300 | 2947 ft | 212 kts | 267° |
| 2026-04-22 05:33 | 11.56702 | -73.16764 | 2955 ft | 207 kts | 265° |
| 2026-04-22 05:33 | 11.56266 | -73.18147 | 2935 ft | 208 kts | 229° |
| 2026-04-22 05:33 | 11.55093 | -73.18977 | 2961 ft | 204 kts | 193° |
| 2026-04-22 05:33 | 11.53711 | -73.19031 | 2964 ft | 199 kts | 161° |
| 2026-04-22 05:34 | 11.52514 | -73.18364 | 2966 ft | 193 kts | 130° |
| 2026-04-22 05:34 | 11.51842 | -73.17217 | 2963 ft | 187 kts | 101° |
| 2026-04-22 05:34 | 11.51773 | -73.15919 | 2974 ft | 185 kts | 85° |
| 2026-04-22 05:34 | 11.51860 | -73.14608 | 2965 ft | 185 kts | 84° |
| 2026-04-22 05:35 | 11.51944 | -73.13283 | 2963 ft | 185 kts | 85° |
| 2026-04-22 05:35 | 11.52018 | -73.11981 | 2955 ft | 186 kts | 85° |
| 2026-04-22 05:35 | 11.52087 | -73.10652 | 2962 ft | 186 kts | 85° |
| 2026-04-22 05:35 | 11.52143 | -73.09342 | 2912 ft | 186 kts | 86° |
| 2026-04-22 05:36 | 11.52182 | -73.08009 | 2792 ft | 186 kts | 86° |
| 2026-04-22 05:36 | 11.52219 | -73.06693 | 2581 ft | 189 kts | 86° |
| 2026-04-22 05:36 | 11.52257 | -73.05347 | 2298 ft | 190 kts | 86° |
| 2026-04-22 05:36 | 11.52296 | -73.03986 | 2032 ft | 191 kts | 86° |
| 2026-04-22 05:37 | 11.52334 | -73.02637 | 1770 ft | 191 kts | 87° |
| 2026-04-22 05:37 | 11.52372 | -73.01308 | 1508 ft | 184 kts | 87° |
| 2026-04-22 05:37 | 11.52410 | -73.00015 | 1283 ft | 182 kts | 87° |
| 2026-04-22 05:37 | 11.52445 | -72.98761 | 1095 ft | 170 kts | 87° |
| 2026-04-22 05:38 | 11.52479 | -72.97584 | 833 ft | 162 kts | 87° |
| 2026-04-22 05:38 | 11.52506 | -72.96480 | 616 ft | 152 kts | 89° |
| 2026-04-22 05:38 | 11.52526 | -72.95422 | 430 ft | 151 kts | 88° |
| 2026-04-22 05:38 | 11.52559 | -72.94311 | 269 ft | 153 kts | 88° |
| 2026-04-22 05:39 | 11.52611 | -72.93257 | 44 ft | 141 kts | 95° |
| 2026-04-22 05:39 | 11.52621 | -72.92554 | 45 ft | 37 kts | 88° |
| 2026-04-22 05:39 | 11.52627 | -72.92389 | 47 ft | 21 kts | 88° |
| 2026-04-22 05:39 | 11.52632 | -72.92240 | 48 ft | 20 kts | 89° |
| 2026-04-22 05:40 | 11.52635 | -72.92107 | 49 ft | 14 kts | 88° |
| 2026-04-22 05:40 | 11.52639 | -72.92004 | 49 ft | 13 kts | 89° |
| 2026-04-22 05:40 | 11.52645 | -72.91922 | 50 ft | 7 kts | 60° |
| 2026-04-22 05:40 | 11.52662 | -72.91909 | 50 ft | 0 kts | 14° |
| 2026-04-22 05:41 | 11.52663 | -72.91909 | 50 ft | 0 kts | 14° |
| 2026-04-22 05:41 | 11.52673 | -72.91907 | 50 ft | 2 kts | 10° |
| 2026-04-22 05:42 | 11.52693 | -72.91904 | 50 ft | 3 kts | 5° |
| 2026-04-22 05:42 | 11.52722 | -72.91904 | 50 ft | 4 kts | 350° |
| 2026-04-22 05:42 | 11.52739 | -72.91933 | 50 ft | 5 kts | 285° |
| 2026-04-22 05:42 | 11.52768 | -72.91946 | 50 ft | 5 kts | 354° |
| 2026-04-22 05:43 | 11.52792 | -72.91946 | 49 ft | 0 kts | 0° |
| 2026-04-22 05:43 | 11.52797 | -72.91946 | 49 ft | 0 kts | 0° |